createdAt,value
2023-01-18T00:00:52.417Z,1.42
2023-01-18T00:03:20.376Z,0.70
2023-01-18T00:05:48.291Z,0.30
2023-01-18T00:08:18.989Z,1.92
2023-01-18T00:10:47.005Z,0.30
2023-01-18T00:13:14.889Z,0.30
2023-01-18T00:15:42.759Z,1.45
2023-01-18T00:18:12.450Z,1.17
2023-01-18T00:20:40.332Z,0.93
2023-01-18T00:23:08.294Z,0.68
2023-01-18T00:25:36.221Z,0.25
2023-01-18T00:28:04.199Z,0.88
2023-01-18T00:30:32.150Z,1.10
2023-01-18T00:33:00.901Z,0.98
2023-01-18T00:35:31.161Z,1.15
2023-01-18T00:37:59.103Z,1.38
2023-01-18T00:40:30.265Z,6.75
2023-01-18T00:43:15.661Z,2.20
2023-01-18T00:45:44.010Z,0.93
2023-01-18T00:48:11.967Z,0.43
2023-01-18T00:50:41.210Z,0.75
2023-01-18T00:53:09.143Z,0.25
2023-01-18T00:55:37.123Z,2.03
2023-01-18T00:58:05.078Z,0.50
2023-01-18T01:00:33.507Z,1.23
2023-01-18T01:03:01.732Z,0.40
2023-01-18T01:05:47.976Z,1.08
2023-01-18T01:08:17.991Z,0.30
2023-01-18T01:10:47.916Z,0.50
2023-01-18T01:13:35.518Z,0.32
2023-01-18T01:16:23.654Z,0.47
2023-01-18T01:19:09.178Z,0.32
2023-01-18T01:21:54.389Z,0.50
2023-01-18T01:24:41.125Z,0.40
2023-01-18T01:27:10.702Z,1.75
2023-01-18T01:29:38.710Z,2.00
2023-01-18T01:32:07.172Z,1.80
2023-01-18T01:34:36.006Z,0.40
2023-01-18T01:37:04.023Z,1.85
2023-01-18T01:39:33.302Z,1.38
2023-01-18T01:42:01.239Z,2.05
2023-01-18T01:44:45.546Z,1.55
2023-01-18T01:47:22.342Z,0.60
2023-01-18T01:49:55.082Z,1.25
2023-01-18T01:52:27.204Z,1.10
2023-01-18T01:55:01.710Z,0.50
2023-01-18T01:57:33.388Z,0.40
2023-01-18T02:00:03.287Z,1.15
2023-01-18T02:02:34.157Z,0.75
2023-01-18T02:05:04.301Z,0.43
2023-01-18T02:07:33.488Z,1.05
2023-01-18T02:10:04.652Z,1.13
2023-01-18T02:12:33.727Z,1.13
2023-01-18T02:15:02.036Z,0.38
2023-01-18T02:17:45.215Z,0.65
2023-01-18T02:20:45.815Z,3.08
2023-01-18T02:23:46.989Z,1.58
2023-01-18T02:26:50.445Z,1.30
2023-01-18T02:29:25.720Z,0.38
2023-01-18T02:32:09.522Z,1.25
2023-01-18T02:34:42.135Z,0.63
2023-01-18T02:37:18.538Z,0.65
2023-01-18T02:40:00.357Z,0.88
2023-01-18T02:42:46.628Z,0.85
2023-01-18T02:45:39.175Z,2.92
2023-01-18T02:48:08.752Z,0.30
2023-01-18T02:50:36.653Z,1.10
2023-01-18T02:53:04.850Z,2.03
2023-01-18T02:55:44.101Z,0.55
2023-01-18T02:58:17.515Z,0.45
2023-01-18T03:00:51.153Z,0.80
2023-01-18T03:03:21.986Z,1.98
2023-01-18T03:05:51.273Z,2.60
2023-01-18T03:08:26.196Z,3.65
2023-01-18T03:11:01.351Z,2.33
2023-01-18T03:13:43.062Z,2.83
2023-01-18T03:16:19.646Z,0.32
2023-01-18T03:19:03.037Z,1.50
2023-01-18T03:21:42.796Z,0.50
2023-01-18T03:24:11.565Z,1.58
2023-01-18T03:26:47.008Z,0.30
2023-01-18T03:29:36.405Z,2.35
2023-01-18T03:32:30.479Z,2.10
2023-01-18T03:35:08.151Z,1.83
2023-01-18T03:37:38.803Z,0.50
2023-01-18T03:40:11.470Z,0.75
2023-01-18T03:42:46.217Z,1.10
2023-01-18T03:45:22.441Z,1.08
2023-01-18T03:47:52.164Z,1.92
2023-01-18T03:50:21.539Z,2.38
2023-01-18T03:52:56.048Z,2.10
2023-01-18T03:55:29.807Z,0.77
2023-01-18T03:58:04.303Z,0.75
2023-01-18T04:00:32.563Z,2.97
2023-01-18T04:03:02.604Z,0.60
2023-01-18T04:05:30.637Z,0.50
2023-01-18T04:07:58.662Z,1.55
2023-01-18T04:10:27.430Z,0.47
2023-01-18T04:12:55.373Z,0.30
2023-01-18T04:15:23.548Z,1.83
2023-01-18T04:17:53.466Z,1.50
2023-01-18T04:20:23.370Z,0.30
2023-01-18T04:22:54.984Z,1.27
2023-01-18T04:25:23.036Z,0.82
2023-01-18T04:27:50.993Z,1.45
2023-01-18T04:30:19.385Z,2.35
2023-01-18T04:32:47.275Z,2.33
2023-01-18T04:35:15.234Z,0.30
2023-01-18T04:37:44.853Z,1.20
2023-01-18T04:40:13.807Z,0.60
2023-01-18T04:42:41.711Z,1.55
2023-01-18T04:45:14.052Z,1.17
2023-01-18T04:47:42.871Z,2.83
2023-01-18T04:50:12.255Z,1.45
2023-01-18T04:52:40.164Z,0.80
2023-01-18T04:55:11.631Z,2.20
2023-01-18T04:57:39.527Z,1.95
2023-01-18T05:00:09.445Z,1.33
2023-01-18T05:02:37.697Z,4.32
2023-01-18T05:05:06.319Z,3.50
2023-01-18T05:07:34.502Z,2.15
2023-01-18T05:10:02.503Z,1.63
2023-01-18T05:12:32.212Z,1.63
2023-01-18T05:15:00.118Z,1.10
2023-01-18T05:17:30.585Z,1.40
2023-01-18T05:19:58.546Z,1.55
2023-01-18T05:22:26.417Z,1.02
2023-01-18T05:24:54.955Z,0.52
2023-01-18T05:27:22.884Z,5.70
2023-01-18T05:29:52.560Z,0.60
2023-01-18T05:32:20.434Z,0.65
2023-01-18T05:34:48.361Z,1.15
2023-01-18T05:37:16.587Z,1.35
2023-01-18T05:39:44.719Z,1.67
2023-01-18T05:42:12.607Z,1.52
2023-01-18T05:44:40.932Z,4.22
2023-01-18T05:47:10.304Z,1.48
2023-01-18T05:49:39.466Z,0.82
2023-01-18T05:52:09.176Z,2.20
2023-01-18T05:54:37.066Z,0.50
2023-01-18T05:57:05.012Z,1.48
2023-01-18T05:59:32.902Z,1.75
2023-01-18T06:02:01.035Z,1.13
2023-01-18T06:04:30.486Z,1.40
2023-01-18T06:06:58.440Z,3.28
2023-01-18T06:09:26.389Z,1.75
2023-01-18T06:11:54.623Z,1.08
2023-01-18T06:14:22.639Z,1.70
2023-01-18T06:16:50.678Z,1.33
2023-01-18T06:19:18.964Z,1.00
2023-01-18T06:21:48.769Z,0.80
2023-01-18T06:24:17.068Z,0.98
2023-01-18T06:26:45.149Z,0.73
2023-01-18T06:29:13.059Z,2.13
2023-01-18T06:31:41.596Z,0.63
2023-01-18T06:34:10.407Z,0.47
2023-01-18T06:36:39.086Z,1.50
2023-01-18T06:39:08.711Z,2.40
2023-01-18T06:41:36.726Z,1.40
2023-01-18T06:44:04.950Z,0.60
2023-01-18T06:46:32.968Z,0.70
2023-01-18T06:49:01.092Z,1.67
2023-01-18T06:51:29.901Z,2.65
2023-01-18T06:53:57.931Z,2.20
2023-01-18T06:56:27.410Z,1.00
2023-01-18T06:58:57.395Z,2.13
2023-01-18T07:01:25.642Z,5.15
2023-01-18T07:03:54.037Z,1.42
2023-01-18T07:06:22.067Z,0.77
2023-01-18T07:08:50.419Z,2.63
2023-01-18T07:11:19.783Z,1.35
2023-01-18T07:13:49.679Z,2.95
2023-01-18T07:16:19.384Z,3.35
2023-01-18T07:18:48.429Z,2.03
2023-01-18T07:21:18.129Z,3.92
2023-01-18T07:23:46.378Z,1.25
2023-01-18T07:26:16.595Z,0.73
2023-01-18T07:28:45.759Z,2.30
2023-01-18T07:31:16.343Z,2.30
2023-01-18T07:33:44.988Z,0.57
2023-01-18T07:36:14.125Z,1.30
2023-01-18T07:38:42.703Z,1.50
2023-01-18T07:41:14.256Z,2.63
2023-01-18T07:43:44.688Z,5.45
2023-01-18T07:46:17.031Z,1.83
2023-01-18T07:48:45.867Z,1.23
2023-01-18T07:51:13.857Z,2.42
2023-01-18T07:53:42.437Z,3.88
2023-01-18T07:56:13.891Z,2.58
2023-01-18T07:58:42.620Z,2.75
2023-01-18T08:01:12.880Z,1.13
2023-01-18T08:03:43.135Z,1.27
2023-01-18T08:06:12.784Z,2.75
2023-01-18T08:08:41.284Z,1.17
2023-01-18T08:11:09.477Z,4.90
2023-01-18T08:13:37.681Z,1.60
2023-01-18T08:16:08.886Z,1.40
2023-01-18T08:18:36.959Z,1.45
2023-01-18T08:21:07.620Z,1.88
2023-01-18T08:23:35.587Z,0.80
2023-01-18T08:26:04.818Z,2.28
2023-01-18T08:28:32.942Z,1.35
2023-01-18T08:31:11.091Z,1.08
2023-01-18T08:33:41.757Z,3.67
2023-01-18T08:36:16.545Z,2.47
2023-01-18T08:38:45.856Z,2.72
2023-01-18T08:41:13.750Z,2.03
2023-01-18T08:43:43.011Z,3.40
2023-01-18T08:46:10.944Z,1.15
2023-01-18T08:48:38.881Z,4.00
2023-01-18T08:51:07.144Z,1.70
2023-01-18T08:53:36.450Z,3.70
2023-01-18T08:56:07.024Z,1.90
2023-01-18T08:58:35.125Z,2.05
2023-01-18T09:01:06.444Z,3.00
2023-01-18T09:03:34.587Z,1.00
2023-01-18T09:06:03.685Z,2.88
2023-01-18T09:08:32.015Z,1.02
2023-01-18T09:11:04.499Z,3.38
2023-01-18T09:13:33.135Z,1.48
2023-01-18T09:16:02.163Z,1.70
2023-01-18T09:18:31.192Z,4.22
2023-01-18T09:20:59.837Z,1.75
2023-01-18T09:23:28.604Z,2.53
2023-01-18T09:26:05.657Z,3.80
2023-01-18T09:28:34.291Z,1.42
2023-01-18T09:31:03.160Z,1.45
2023-01-18T09:33:37.627Z,2.13
2023-01-18T09:36:10.235Z,2.05
2023-01-18T09:38:39.750Z,1.00
2023-01-18T09:41:23.360Z,1.58
2023-01-18T09:43:55.142Z,4.38
2023-01-18T09:46:25.408Z,2.80
2023-01-18T09:48:57.041Z,1.50
2023-01-18T09:51:29.162Z,1.65
2023-01-18T09:54:11.544Z,2.17
2023-01-18T09:56:47.646Z,3.67
2023-01-18T09:59:27.962Z,0.50
2023-01-18T10:01:56.672Z,4.57
2023-01-18T10:04:30.953Z,2.45
2023-01-18T10:07:04.753Z,1.40
2023-01-18T10:09:37.770Z,1.23
2023-01-18T10:12:17.537Z,0.98
2023-01-18T10:14:51.645Z,3.25
2023-01-18T10:17:23.073Z,2.47
2023-01-18T10:19:51.709Z,3.78
2023-01-18T10:22:24.003Z,2.60
2023-01-18T10:24:59.834Z,4.95
2023-01-18T10:27:43.161Z,2.92
2023-01-18T10:30:29.300Z,3.03
2023-01-18T10:32:59.819Z,3.58
2023-01-18T10:35:32.374Z,9.82
2023-01-18T10:38:04.758Z,2.65
2023-01-18T10:40:33.809Z,1.00
2023-01-18T10:43:04.542Z,2.03
2023-01-18T10:45:36.187Z,4.10
2023-01-18T10:48:25.376Z,1.23
2023-01-18T10:50:55.312Z,3.05
2023-01-18T10:53:29.477Z,3.72
2023-01-18T10:56:03.004Z,4.28
2023-01-18T10:58:37.894Z,1.63
2023-01-18T11:01:07.071Z,3.72
2023-01-18T11:03:46.564Z,2.92
2023-01-18T11:06:17.239Z,2.33
2023-01-18T11:08:45.857Z,3.88
2023-01-18T11:11:19.610Z,5.63
2023-01-18T11:13:50.331Z,1.13
2023-01-18T11:16:21.025Z,2.03
2023-01-18T11:19:03.936Z,3.53
2023-01-18T11:21:45.763Z,2.10
2023-01-18T11:24:17.124Z,3.45
2023-01-18T11:26:54.853Z,3.00
2023-01-18T11:29:28.582Z,0.93
2023-01-18T11:32:02.984Z,3.90
2023-01-18T11:34:33.652Z,3.03
2023-01-18T11:37:02.733Z,3.67
2023-01-18T11:39:34.260Z,6.00
2023-01-18T11:42:22.603Z,2.55
2023-01-18T11:45:06.094Z,2.45
2023-01-18T11:47:46.243Z,3.63
2023-01-18T11:50:28.331Z,1.67
2023-01-18T11:53:02.445Z,4.13
2023-01-18T11:55:36.253Z,1.98
2023-01-18T11:58:06.294Z,3.08
2023-01-18T12:00:48.447Z,3.33
2023-01-18T12:03:38.145Z,2.28
2023-01-18T12:06:19.421Z,2.42
2023-01-18T12:09:03.700Z,6.20
2023-01-18T12:11:45.663Z,1.73
2023-01-18T12:14:29.937Z,3.53
2023-01-18T12:17:20.616Z,3.33
2023-01-18T12:20:02.662Z,1.65
2023-01-18T12:22:58.615Z,4.07
2023-01-18T12:25:41.848Z,4.32
2023-01-18T12:28:23.493Z,4.97
2023-01-18T12:31:02.799Z,3.55
2023-01-18T12:33:45.674Z,3.80
2023-01-18T12:36:27.504Z,3.50
2023-01-18T12:38:57.277Z,4.95
2023-01-18T12:41:40.607Z,2.75
2023-01-18T12:44:34.617Z,2.13
2023-01-18T12:47:15.973Z,5.28
2023-01-18T12:49:50.495Z,2.80
2023-01-18T12:52:22.428Z,2.97
2023-01-18T12:54:55.696Z,3.38
2023-01-18T12:57:25.492Z,6.30
2023-01-18T12:59:57.912Z,1.77
2023-01-18T13:02:33.328Z,4.97
2023-01-18T13:05:07.731Z,3.28
2023-01-18T13:07:40.410Z,5.00
2023-01-18T13:10:17.998Z,4.40
2023-01-18T13:12:46.593Z,3.67
2023-01-18T13:15:28.860Z,7.65
2023-01-18T13:18:02.781Z,4.72
2023-01-18T13:20:45.805Z,4.60
2023-01-18T13:23:27.077Z,7.25
2023-01-18T13:26:05.644Z,5.30
2023-01-18T13:28:33.865Z,3.25
2023-01-18T13:31:05.023Z,6.32
2023-01-18T13:33:35.496Z,5.65
2023-01-18T13:36:09.113Z,4.30
2023-01-18T13:38:42.144Z,7.05
2023-01-18T13:41:13.958Z,6.53
2023-01-18T13:44:04.039Z,4.43
2023-01-18T13:46:35.315Z,3.63
2023-01-18T13:49:37.123Z,5.20
2023-01-18T13:52:30.113Z,6.78
2023-01-18T13:55:04.190Z,6.90
2023-01-18T13:57:34.220Z,6.57
2023-01-18T14:00:02.771Z,6.32
2023-01-18T14:02:45.101Z,8.05
2023-01-18T14:05:25.252Z,5.80
2023-01-18T14:07:58.447Z,6.60
2023-01-18T14:10:31.904Z,5.00
2023-01-18T14:13:02.438Z,8.20
2023-01-18T14:15:46.619Z,5.22
2023-01-18T14:18:22.745Z,4.95
2023-01-18T14:21:15.326Z,5.80
2023-01-18T14:24:10.776Z,6.63
2023-01-18T14:26:41.650Z,7.97
2023-01-18T14:29:14.359Z,7.63
2023-01-18T14:31:49.159Z,3.47
2023-01-18T14:34:36.557Z,5.72
2023-01-18T14:37:05.851Z,6.50
2023-01-18T14:39:35.209Z,5.22
2023-01-18T14:42:06.131Z,8.18
2023-01-18T14:44:56.894Z,7.82
2023-01-18T14:47:31.266Z,7.10
2023-01-18T14:49:59.563Z,3.05
2023-01-18T14:52:31.637Z,7.15
2023-01-18T14:55:01.261Z,7.57
2023-01-18T14:57:29.266Z,4.15
2023-01-18T15:00:06.391Z,9.98
2023-01-18T15:02:39.306Z,4.50
2023-01-18T15:05:17.120Z,6.55
2023-01-18T15:07:47.996Z,6.03
2023-01-18T15:10:19.909Z,11.23
2023-01-18T15:12:51.434Z,5.80
2023-01-18T15:15:25.542Z,7.15
2023-01-18T15:17:55.789Z,5.35
2023-01-18T15:20:23.964Z,8.07
2023-01-18T15:22:55.195Z,11.07
2023-01-18T15:25:28.069Z,6.03
2023-01-18T15:28:06.455Z,6.72
2023-01-18T15:30:39.920Z,6.25
2023-01-18T15:33:10.871Z,11.10
2023-01-18T15:35:40.312Z,5.05
2023-01-18T15:38:08.336Z,4.82
2023-01-18T15:40:43.377Z,7.15
2023-01-18T15:43:26.274Z,5.63
2023-01-18T15:45:57.831Z,3.63
2023-01-18T15:48:28.823Z,8.73
2023-01-18T15:50:58.920Z,8.52
2023-01-18T15:53:32.852Z,7.75
2023-01-18T15:56:04.120Z,7.18
2023-01-18T15:58:37.329Z,13.73
2023-01-18T16:01:09.015Z,9.52
2023-01-18T16:03:40.149Z,6.22
2023-01-18T16:06:12.169Z,10.13
2023-01-18T16:08:59.064Z,5.60
2023-01-18T16:11:33.631Z,6.10
2023-01-18T16:14:06.217Z,5.65
2023-01-18T16:16:38.459Z,9.02
2023-01-18T16:19:14.390Z,4.97
2023-01-18T16:21:56.342Z,7.72
2023-01-18T16:24:30.843Z,5.88
2023-01-18T16:27:10.244Z,4.13
2023-01-18T16:29:45.279Z,5.47
2023-01-18T16:32:29.910Z,8.32
2023-01-18T16:35:03.032Z,8.70
2023-01-18T16:37:31.603Z,8.95
2023-01-18T16:39:59.592Z,10.73
2023-01-18T16:42:37.605Z,17.42
2023-01-18T16:45:13.902Z,9.60
2023-01-18T16:47:41.899Z,9.68
2023-01-18T16:50:15.772Z,8.60
2023-01-18T16:52:44.729Z,12.57
2023-01-18T16:55:15.168Z,7.72
2023-01-18T16:57:45.308Z,9.40
2023-01-18T17:00:19.322Z,10.80
2023-01-18T17:02:47.587Z,10.85
2023-01-18T17:05:16.124Z,10.50
2023-01-18T17:07:45.480Z,6.53
2023-01-18T17:10:23.679Z,5.40
2023-01-18T17:12:53.245Z,6.20
2023-01-18T17:15:21.354Z,8.75
2023-01-18T17:17:50.402Z,8.60
2023-01-18T17:20:22.793Z,6.93
2023-01-18T17:22:52.107Z,8.88
2023-01-18T17:25:20.909Z,6.78
2023-01-18T17:27:49.431Z,6.38
2023-01-18T17:30:22.148Z,10.90
2023-01-18T17:32:50.365Z,14.88
2023-01-18T17:35:21.424Z,45.63
2023-01-18T17:37:54.512Z,20.20
2023-01-18T17:40:39.390Z,12.30
2023-01-18T17:43:15.217Z,14.23
2023-01-18T17:45:59.653Z,10.45
2023-01-18T17:48:29.495Z,9.77
2023-01-18T17:50:58.130Z,8.07
2023-01-18T17:53:26.429Z,6.63
2023-01-18T17:55:54.729Z,7.00
2023-01-18T17:58:23.241Z,8.15
2023-01-18T18:00:52.974Z,8.68
2023-01-18T18:03:22.295Z,10.50
2023-01-18T18:05:50.695Z,12.35
2023-01-18T18:08:20.041Z,10.13
2023-01-18T18:10:49.134Z,9.63
2023-01-18T18:13:18.942Z,10.30
2023-01-18T18:15:47.468Z,8.00
2023-01-18T18:18:24.170Z,12.95
2023-01-18T18:20:58.343Z,8.13
2023-01-18T18:23:28.800Z,15.07
2023-01-18T18:25:57.335Z,7.20
2023-01-18T18:28:27.999Z,5.35
2023-01-18T18:30:57.019Z,8.13
2023-01-18T18:33:27.824Z,10.80
2023-01-18T18:36:00.569Z,8.02
2023-01-18T18:38:29.204Z,9.48
2023-01-18T18:41:04.042Z,13.35
2023-01-18T18:43:32.247Z,8.50
2023-01-18T18:46:00.939Z,8.57
2023-01-18T18:48:31.471Z,11.30
2023-01-18T18:50:59.746Z,8.90
2023-01-18T18:53:37.592Z,7.07
2023-01-18T18:56:11.816Z,9.07
2023-01-18T18:58:41.603Z,8.13
2023-01-18T19:01:21.712Z,12.43
2023-01-18T19:03:53.840Z,10.82
2023-01-18T19:06:23.673Z,16.08
2023-01-18T19:08:52.003Z,13.07
2023-01-18T19:11:21.993Z,12.57
2023-01-18T19:13:51.570Z,8.10
2023-01-18T19:16:24.549Z,8.18
2023-01-18T19:18:55.008Z,15.18
2023-01-18T19:21:23.201Z,11.32
2023-01-18T19:23:51.841Z,9.25
2023-01-18T19:26:20.704Z,8.00
2023-01-18T19:28:50.089Z,10.23
2023-01-18T19:31:19.559Z,12.15
2023-01-18T19:33:47.829Z,11.88
2023-01-18T19:36:18.337Z,12.50
2023-01-18T19:38:52.677Z,8.85
2023-01-18T19:41:25.891Z,7.32
2023-01-18T19:43:53.998Z,11.50
2023-01-18T19:46:22.532Z,6.32
2023-01-18T19:48:50.902Z,6.70
2023-01-18T19:51:23.361Z,7.47
2023-01-18T19:53:53.085Z,8.43
2023-01-18T19:56:22.927Z,11.00
2023-01-18T19:58:50.969Z,12.18
2023-01-18T20:01:35.227Z,10.38
2023-01-18T20:04:04.481Z,8.40
2023-01-18T20:06:34.942Z,11.00
2023-01-18T20:09:07.399Z,12.60
2023-01-18T20:11:38.741Z,8.30
2023-01-18T20:14:07.208Z,11.80
2023-01-18T20:16:35.547Z,9.80
2023-01-18T20:19:03.810Z,9.68
2023-01-18T20:21:35.983Z,8.65
2023-01-18T20:24:04.001Z,15.27
2023-01-18T20:26:37.337Z,12.13
2023-01-18T20:29:07.070Z,10.43
2023-01-18T20:31:36.454Z,17.77
2023-01-18T20:34:05.154Z,11.65
2023-01-18T20:36:36.753Z,15.63
2023-01-18T20:39:05.659Z,11.98
2023-01-18T20:41:34.006Z,11.10
2023-01-18T20:44:02.076Z,8.80
2023-01-18T20:46:30.096Z,10.77
2023-01-18T20:48:58.528Z,13.20
2023-01-18T20:51:27.350Z,10.00
2023-01-18T20:53:56.855Z,20.25
2023-01-18T20:56:29.875Z,11.00
2023-01-18T20:58:59.047Z,10.70
2023-01-18T21:01:32.270Z,13.15
2023-01-18T21:04:01.515Z,19.42
2023-01-18T21:06:29.981Z,10.90
2023-01-18T21:09:01.083Z,13.43
2023-01-18T21:11:29.412Z,8.32
2023-01-18T21:13:59.235Z,17.75
2023-01-18T21:16:28.279Z,14.13
2023-01-18T21:18:59.126Z,16.33
2023-01-18T21:21:29.422Z,15.02
2023-01-18T21:23:57.523Z,12.65
2023-01-18T21:26:27.579Z,12.00
2023-01-18T21:28:56.175Z,14.13
2023-01-18T21:31:24.417Z,16.23
2023-01-18T21:33:54.216Z,11.07
2023-01-18T21:36:23.039Z,14.32
2023-01-18T21:38:51.208Z,15.10
2023-01-18T21:41:37.240Z,14.27
2023-01-18T21:44:24.418Z,13.85
2023-01-18T21:46:53.561Z,13.00
2023-01-18T21:50:10.948Z,12.50
2023-01-18T21:52:48.825Z,12.85
2023-01-18T21:55:17.230Z,11.35
2023-01-18T21:57:45.822Z,12.18
2023-01-18T22:00:16.449Z,12.35
2023-01-18T22:02:44.562Z,11.10
2023-01-18T22:05:12.527Z,14.80
2023-01-18T22:07:40.434Z,15.05
2023-01-18T22:10:09.442Z,13.32
2023-01-18T22:12:39.113Z,10.93
2023-01-18T22:15:08.335Z,11.55
2023-01-18T22:17:38.144Z,9.23
2023-01-18T22:20:07.206Z,16.45
2023-01-18T22:22:35.263Z,13.48
2023-01-18T22:25:03.348Z,9.15
2023-01-18T22:27:31.467Z,15.48
2023-01-18T22:29:59.955Z,12.57
2023-01-18T22:32:28.036Z,11.00
2023-01-18T22:34:57.535Z,13.00
2023-01-18T22:37:27.649Z,10.60
2023-01-18T22:39:55.837Z,15.70
2023-01-18T22:42:23.824Z,13.63
2023-01-18T22:44:51.768Z,7.82
2023-01-18T22:47:19.840Z,12.85
2023-01-18T22:49:47.944Z,7.22
2023-01-18T22:52:17.338Z,10.45
2023-01-18T22:54:45.442Z,6.97
2023-01-18T22:57:13.456Z,8.75
2023-01-18T22:59:41.475Z,12.23
2023-01-18T23:02:09.486Z,8.93
2023-01-18T23:04:37.980Z,11.73
2023-01-18T23:07:05.973Z,9.07
2023-01-18T23:09:35.256Z,10.48
2023-01-18T23:12:03.142Z,4.82
2023-01-18T23:14:48.341Z,9.57
2023-01-18T23:17:34.208Z,10.60
2023-01-18T23:20:02.189Z,5.57
2023-01-18T23:22:31.175Z,8.95
2023-01-18T23:25:00.506Z,11.07
2023-01-18T23:27:28.369Z,8.60
2023-01-18T23:29:58.600Z,11.77
2023-01-18T23:32:30.469Z,9.13
2023-01-18T23:34:58.776Z,11.80
2023-01-18T23:37:27.286Z,15.35
2023-01-18T23:40:12.691Z,8.40
2023-01-18T23:42:59.518Z,14.15
2023-01-18T23:45:45.611Z,8.43
2023-01-18T23:48:32.566Z,15.52
2023-01-18T23:51:18.549Z,10.32
2023-01-18T23:54:04.525Z,7.97
2023-01-18T23:56:33.260Z,13.73
2023-01-18T23:59:02.974Z,11.65
